sensor_id;sensor_type;location;lat;lon;timestamp;P1;durP1;ratioP1;P2;durP2;ratioP2
20036;SDS011;10179;42.640;23.312;2023-12-20T00:02:07;41.17;;;21.77;;
20036;SDS011;10179;42.640;23.312;2023-12-20T00:04:32;46.75;;;23.25;;
20036;SDS011;10179;42.640;23.312;2023-12-20T00:06:58;37.70;;;18.02;;
20036;SDS011;10179;42.640;23.312;2023-12-20T00:09:23;30.95;;;15.55;;
20036;SDS011;10179;42.640;23.312;2023-12-20T00:11:49;30.25;;;17.65;;
20036;SDS011;10179;42.640;23.312;2023-12-20T00:14:14;29.92;;;17.25;;
20036;SDS011;10179;42.640;23.312;2023-12-20T00:16:39;38.17;;;21.27;;
20036;SDS011;10179;42.640;23.312;2023-12-20T00:19:05;32.15;;;17.27;;
20036;SDS011;10179;42.640;23.312;2023-12-20T00:21:30;32.88;;;17.83;;
20036;SDS011;10179;42.640;23.312;2023-12-20T00:23:56;36.15;;;19.98;;
20036;SDS011;10179;42.640;23.312;2023-12-20T00:26:21;43.85;;;21.48;;
20036;SDS011;10179;42.640;23.312;2023-12-20T00:28:46;41.53;;;19.85;;
20036;SDS011;10179;42.640;23.312;2023-12-20T00:31:12;42.55;;;19.27;;
20036;SDS011;10179;42.640;23.312;2023-12-20T00:33:37;36.50;;;18.30;;
20036;SDS011;10179;42.640;23.312;2023-12-20T00:36:04;37.65;;;19.63;;
20036;SDS011;10179;42.640;23.312;2023-12-20T00:38:30;37.88;;;18.52;;
20036;SDS011;10179;42.640;23.312;2023-12-20T00:40:55;32.72;;;16.35;;
20036;SDS011;10179;42.640;23.312;2023-12-20T00:43:21;40.40;;;17.95;;
20036;SDS011;10179;42.640;23.312;2023-12-20T00:45:46;41.85;;;19.35;;
20036;SDS011;10179;42.640;23.312;2023-12-20T00:48:11;43.65;;;18.85;;
20036;SDS011;10179;42.640;23.312;2023-12-20T00:50:37;37.25;;;17.77;;
20036;SDS011;10179;42.640;23.312;2023-12-20T00:53:02;37.75;;;18.50;;
20036;SDS011;10179;42.640;23.312;2023-12-20T00:55:28;33.50;;;16.85;;
20036;SDS011;10179;42.640;23.312;2023-12-20T00:57:53;38.80;;;17.15;;
20036;SDS011;10179;42.640;23.312;2023-12-20T01:00:19;41.50;;;18.95;;
20036;SDS011;10179;42.640;23.312;2023-12-20T01:02:44;38.88;;;19.40;;
20036;SDS011;10179;42.640;23.312;2023-12-20T01:05:11;41.90;;;18.65;;
20036;SDS011;10179;42.640;23.312;2023-12-20T01:07:37;46.50;;;19.95;;
20036;SDS011;10179;42.640;23.312;2023-12-20T01:10:02;41.17;;;19.35;;
20036;SDS011;10179;42.640;23.312;2023-12-20T01:12:28;38.25;;;19.02;;
20036;SDS011;10179;42.640;23.312;2023-12-20T01:14:53;42.90;;;18.75;;
20036;SDS011;10179;42.640;23.312;2023-12-20T01:17:19;36.80;;;17.95;;
20036;SDS011;10179;42.640;23.312;2023-12-20T01:19:44;34.50;;;17.63;;
20036;SDS011;10179;42.640;23.312;2023-12-20T01:22:09;36.55;;;17.40;;
20036;SDS011;10179;42.640;23.312;2023-12-20T01:24:35;42.85;;;18.63;;
20036;SDS011;10179;42.640;23.312;2023-12-20T01:27:00;37.85;;;18.27;;
20036;SDS011;10179;42.640;23.312;2023-12-20T01:29:25;33.05;;;18.08;;
20036;SDS011;10179;42.640;23.312;2023-12-20T01:31:51;40.28;;;18.52;;
20036;SDS011;10179;42.640;23.312;2023-12-20T01:34:16;39.42;;;19.83;;
20036;SDS011;10179;42.640;23.312;2023-12-20T01:36:42;30.67;;;16.98;;
20036;SDS011;10179;42.640;23.312;2023-12-20T01:39:08;25.67;;;13.98;;
20036;SDS011;10179;42.640;23.312;2023-12-20T01:41:33;29.73;;;16.55;;
20036;SDS011;10179;42.640;23.312;2023-12-20T01:43:59;35.47;;;17.63;;
20036;SDS011;10179;42.640;23.312;2023-12-20T01:46:24;41.17;;;21.85;;
20036;SDS011;10179;42.640;23.312;2023-12-20T01:48:50;41.90;;;21.60;;
20036;SDS011;10179;42.640;23.312;2023-12-20T01:51:16;55.97;;;28.52;;
20036;SDS011;10179;42.640;23.312;2023-12-20T01:53:42;48.53;;;24.98;;
20036;SDS011;10179;42.640;23.312;2023-12-20T01:56:08;49.03;;;25.08;;
20036;SDS011;10179;42.640;23.312;2023-12-20T01:58:35;45.35;;;23.70;;
20036;SDS011;10179;42.640;23.312;2023-12-20T02:01:07;37.50;;;20.20;;
20036;SDS011;10179;42.640;23.312;2023-12-20T02:03:33;54.38;;;28.20;;
20036;SDS011;10179;42.640;23.312;2023-12-20T02:06:01;41.08;;;21.02;;
20036;SDS011;10179;42.640;23.312;2023-12-20T02:08:27;32.78;;;17.80;;
20036;SDS011;10179;42.640;23.312;2023-12-20T02:10:53;27.30;;;14.70;;
20036;SDS011;10179;42.640;23.312;2023-12-20T02:13:19;25.42;;;13.60;;
20036;SDS011;10179;42.640;23.312;2023-12-20T02:15:45;27.90;;;14.07;;
20036;SDS011;10179;42.640;23.312;2023-12-20T02:18:10;45.17;;;22.73;;
20036;SDS011;10179;42.640;23.312;2023-12-20T02:20:40;40.10;;;20.05;;
20036;SDS011;10179;42.640;23.312;2023-12-20T02:23:05;34.38;;;18.63;;
20036;SDS011;10179;42.640;23.312;2023-12-20T02:25:31;32.13;;;16.95;;
20036;SDS011;10179;42.640;23.312;2023-12-20T02:27:56;39.30;;;21.45;;
20036;SDS011;10179;42.640;23.312;2023-12-20T02:30:22;47.20;;;24.88;;
20036;SDS011;10179;42.640;23.312;2023-12-20T02:32:47;44.00;;;22.65;;
20036;SDS011;10179;42.640;23.312;2023-12-20T02:35:14;58.15;;;29.50;;
20036;SDS011;10179;42.640;23.312;2023-12-20T02:37:40;67.65;;;33.22;;
20036;SDS011;10179;42.640;23.312;2023-12-20T02:40:05;52.55;;;28.85;;
20036;SDS011;10179;42.640;23.312;2023-12-20T02:42:31;63.88;;;30.92;;
20036;SDS011;10179;42.640;23.312;2023-12-20T02:44:57;71.47;;;36.47;;
20036;SDS011;10179;42.640;23.312;2023-12-20T02:47:22;46.00;;;26.05;;
20036;SDS011;10179;42.640;23.312;2023-12-20T02:49:47;57.35;;;28.23;;
20036;SDS011;10179;42.640;23.312;2023-12-20T02:52:14;50.55;;;28.25;;
20036;SDS011;10179;42.640;23.312;2023-12-20T02:54:39;53.03;;;27.98;;
20036;SDS011;10179;42.640;23.312;2023-12-20T02:57:04;48.50;;;24.88;;
20036;SDS011;10179;42.640;23.312;2023-12-20T02:59:30;44.72;;;21.75;;
20036;SDS011;10179;42.640;23.312;2023-12-20T03:01:55;41.33;;;19.83;;
20036;SDS011;10179;42.640;23.312;2023-12-20T03:04:21;36.15;;;19.58;;
20036;SDS011;10179;42.640;23.312;2023-12-20T03:06:46;42.90;;;22.42;;
20036;SDS011;10179;42.640;23.312;2023-12-20T03:09:11;46.63;;;21.83;;
20036;SDS011;10179;42.640;23.312;2023-12-20T03:11:37;50.30;;;24.50;;
20036;SDS011;10179;42.640;23.312;2023-12-20T03:14:02;43.90;;;24.23;;
20036;SDS011;10179;42.640;23.312;2023-12-20T03:16:28;45.22;;;24.83;;
20036;SDS011;10179;42.640;23.312;2023-12-20T03:18:53;46.63;;;23.92;;
20036;SDS011;10179;42.640;23.312;2023-12-20T03:21:18;53.10;;;24.40;;
20036;SDS011;10179;42.640;23.312;2023-12-20T03:23:45;43.17;;;23.50;;
20036;SDS011;10179;42.640;23.312;2023-12-20T03:26:10;42.70;;;22.30;;
20036;SDS011;10179;42.640;23.312;2023-12-20T03:28:35;45.42;;;24.48;;
20036;SDS011;10179;42.640;23.312;2023-12-20T03:31:01;41.33;;;22.33;;
20036;SDS011;10179;42.640;23.312;2023-12-20T03:33:27;34.88;;;18.77;;
20036;SDS011;10179;42.640;23.312;2023-12-20T03:35:53;33.20;;;17.38;;
20036;SDS011;10179;42.640;23.312;2023-12-20T03:38:18;37.58;;;19.02;;
20036;SDS011;10179;42.640;23.312;2023-12-20T03:40:44;38.17;;;18.92;;
20036;SDS011;10179;42.640;23.312;2023-12-20T03:43:09;37.65;;;19.17;;
20036;SDS011;10179;42.640;23.312;2023-12-20T03:45:34;36.13;;;17.65;;
20036;SDS011;10179;42.640;23.312;2023-12-20T03:48:00;33.72;;;16.42;;
20036;SDS011;10179;42.640;23.312;2023-12-20T03:50:25;37.38;;;17.23;;
20036;SDS011;10179;42.640;23.312;2023-12-20T03:52:51;36.97;;;16.77;;
20036;SDS011;10179;42.640;23.312;2023-12-20T03:55:17;37.00;;;18.30;;
20036;SDS011;10179;42.640;23.312;2023-12-20T03:57:42;38.40;;;18.75;;
20036;SDS011;10179;42.640;23.312;2023-12-20T04:00:08;35.67;;;16.63;;
20036;SDS011;10179;42.640;23.312;2023-12-20T04:02:40;42.80;;;18.98;;
20036;SDS011;10179;42.640;23.312;2023-12-20T04:05:07;35.40;;;18.85;;
20036;SDS011;10179;42.640;23.312;2023-12-20T04:07:33;34.03;;;19.27;;
20036;SDS011;10179;42.640;23.312;2023-12-20T04:09:59;37.67;;;20.67;;
20036;SDS011;10179;42.640;23.312;2023-12-20T04:12:25;37.03;;;19.50;;
20036;SDS011;10179;42.640;23.312;2023-12-20T04:14:51;36.53;;;20.05;;
20036;SDS011;10179;42.640;23.312;2023-12-20T04:17:16;37.22;;;19.98;;
20036;SDS011;10179;42.640;23.312;2023-12-20T04:19:42;37.38;;;19.38;;
20036;SDS011;10179;42.640;23.312;2023-12-20T04:22:08;34.78;;;18.30;;
20036;SDS011;10179;42.640;23.312;2023-12-20T04:24:33;38.17;;;18.80;;
20036;SDS011;10179;42.640;23.312;2023-12-20T04:26:59;33.25;;;16.80;;
20036;SDS011;10179;42.640;23.312;2023-12-20T04:29:24;32.67;;;17.35;;
20036;SDS011;10179;42.640;23.312;2023-12-20T04:31:49;26.20;;;14.70;;
20036;SDS011;10179;42.640;23.312;2023-12-20T04:34:16;24.48;;;13.85;;
20036;SDS011;10179;42.640;23.312;2023-12-20T04:36:43;25.75;;;14.45;;
20036;SDS011;10179;42.640;23.312;2023-12-20T04:39:08;30.70;;;16.65;;
20036;SDS011;10179;42.640;23.312;2023-12-20T04:41:33;35.83;;;17.85;;
20036;SDS011;10179;42.640;23.312;2023-12-20T04:43:59;33.90;;;17.67;;
20036;SDS011;10179;42.640;23.312;2023-12-20T04:46:25;32.38;;;17.40;;
20036;SDS011;10179;42.640;23.312;2023-12-20T04:48:51;25.17;;;14.48;;
20036;SDS011;10179;42.640;23.312;2023-12-20T04:51:16;33.25;;;17.38;;
20036;SDS011;10179;42.640;23.312;2023-12-20T04:53:41;32.72;;;16.95;;
20036;SDS011;10179;42.640;23.312;2023-12-20T04:56:07;31.90;;;15.02;;
20036;SDS011;10179;42.640;23.312;2023-12-20T04:58:32;42.03;;;16.45;;
20036;SDS011;10179;42.640;23.312;2023-12-20T05:00:57;40.92;;;19.20;;
20036;SDS011;10179;42.640;23.312;2023-12-20T05:03:23;40.17;;;20.92;;
20036;SDS011;10179;42.640;23.312;2023-12-20T05:05:48;45.20;;;23.52;;
20036;SDS011;10179;42.640;23.312;2023-12-20T05:08:14;40.08;;;20.60;;
20036;SDS011;10179;42.640;23.312;2023-12-20T05:10:40;38.33;;;20.52;;
20036;SDS011;10179;42.640;23.312;2023-12-20T05:13:05;38.13;;;20.05;;
20036;SDS011;10179;42.640;23.312;2023-12-20T05:15:31;36.42;;;17.60;;
20036;SDS011;10179;42.640;23.312;2023-12-20T05:17:56;38.17;;;19.30;;
20036;SDS011;10179;42.640;23.312;2023-12-20T05:20:21;31.98;;;16.83;;
20036;SDS011;10179;42.640;23.312;2023-12-20T05:22:48;37.78;;;19.23;;
20036;SDS011;10179;42.640;23.312;2023-12-20T05:25:13;28.80;;;15.85;;
20036;SDS011;10179;42.640;23.312;2023-12-20T05:27:39;33.53;;;17.60;;
20036;SDS011;10179;42.640;23.312;2023-12-20T05:30:05;38.83;;;17.20;;
20036;SDS011;10179;42.640;23.312;2023-12-20T05:32:31;41.10;;;19.52;;
20036;SDS011;10179;42.640;23.312;2023-12-20T05:34:56;37.33;;;19.08;;
20036;SDS011;10179;42.640;23.312;2023-12-20T05:37:21;47.10;;;20.05;;
20036;SDS011;10179;42.640;23.312;2023-12-20T05:39:47;49.80;;;21.92;;
20036;SDS011;10179;42.640;23.312;2023-12-20T05:42:12;44.58;;;21.35;;
20036;SDS011;10179;42.640;23.312;2023-12-20T05:44:37;43.25;;;20.90;;
20036;SDS011;10179;42.640;23.312;2023-12-20T05:47:03;45.15;;;20.45;;
20036;SDS011;10179;42.640;23.312;2023-12-20T05:49:28;41.25;;;21.48;;
20036;SDS011;10179;42.640;23.312;2023-12-20T05:51:54;51.65;;;24.35;;
20036;SDS011;10179;42.640;23.312;2023-12-20T05:54:19;47.60;;;24.80;;
20036;SDS011;10179;42.640;23.312;2023-12-20T05:56:44;60.05;;;26.90;;
20036;SDS011;10179;42.640;23.312;2023-12-20T05:59:10;61.40;;;30.45;;
20036;SDS011;10179;42.640;23.312;2023-12-20T06:01:35;67.72;;;32.10;;
20036;SDS011;10179;42.640;23.312;2023-12-20T06:04:01;68.30;;;32.40;;
20036;SDS011;10179;42.640;23.312;2023-12-20T06:06:26;60.65;;;30.95;;
20036;SDS011;10179;42.640;23.312;2023-12-20T06:08:51;65.03;;;32.20;;
20036;SDS011;10179;42.640;23.312;2023-12-20T06:11:17;80.00;;;35.45;;
20036;SDS011;10179;42.640;23.312;2023-12-20T06:13:42;81.53;;;41.28;;
20036;SDS011;10179;42.640;23.312;2023-12-20T06:16:08;94.40;;;43.75;;
20036;SDS011;10179;42.640;23.312;2023-12-20T06:18:33;87.38;;;40.75;;
20036;SDS011;10179;42.640;23.312;2023-12-20T06:20:58;100.35;;;44.55;;
20036;SDS011;10179;42.640;23.312;2023-12-20T06:23:24;121.80;;;48.80;;
20036;SDS011;10179;42.640;23.312;2023-12-20T06:25:49;122.20;;;48.17;;
20036;SDS011;10179;42.640;23.312;2023-12-20T06:28:14;118.95;;;49.92;;
20036;SDS011;10179;42.640;23.312;2023-12-20T06:30:40;107.10;;;44.78;;
20036;SDS011;10179;42.640;23.312;2023-12-20T06:33:05;84.05;;;39.95;;
20036;SDS011;10179;42.640;23.312;2023-12-20T06:35:31;94.00;;;40.63;;
20036;SDS011;10179;42.640;23.312;2023-12-20T06:37:57;106.85;;;48.90;;
20036;SDS011;10179;42.640;23.312;2023-12-20T06:40:23;119.30;;;53.47;;
20036;SDS011;10179;42.640;23.312;2023-12-20T06:42:48;154.82;;;67.30;;
20036;SDS011;10179;42.640;23.312;2023-12-20T06:45:13;132.73;;;61.83;;
20036;SDS011;10179;42.640;23.312;2023-12-20T06:47:39;144.40;;;66.43;;
20036;SDS011;10179;42.640;23.312;2023-12-20T06:50:05;126.85;;;59.92;;
20036;SDS011;10179;42.640;23.312;2023-12-20T06:52:30;123.15;;;57.75;;
20036;SDS011;10179;42.640;23.312;2023-12-20T06:54:55;125.15;;;59.55;;
20036;SDS011;10179;42.640;23.312;2023-12-20T06:57:21;137.88;;;61.88;;
20036;SDS011;10179;42.640;23.312;2023-12-20T06:59:46;128.35;;;59.92;;
20036;SDS011;10179;42.640;23.312;2023-12-20T07:02:12;125.50;;;60.75;;
20036;SDS011;10179;42.640;23.312;2023-12-20T07:04:41;138.13;;;67.85;;
20036;SDS011;10179;42.640;23.312;2023-12-20T07:07:06;134.52;;;65.40;;
20036;SDS011;10179;42.640;23.312;2023-12-20T07:09:32;119.28;;;60.67;;
20036;SDS011;10179;42.640;23.312;2023-12-20T07:11:57;132.25;;;62.55;;
20036;SDS011;10179;42.640;23.312;2023-12-20T07:14:23;133.25;;;62.50;;
20036;SDS011;10179;42.640;23.312;2023-12-20T07:16:48;120.15;;;60.95;;
20036;SDS011;10179;42.640;23.312;2023-12-20T07:19:14;110.13;;;56.17;;
20036;SDS011;10179;42.640;23.312;2023-12-20T07:21:39;117.78;;;58.45;;
20036;SDS011;10179;42.640;23.312;2023-12-20T07:24:05;120.18;;;60.42;;
20036;SDS011;10179;42.640;23.312;2023-12-20T07:26:30;111.30;;;58.70;;
20036;SDS011;10179;42.640;23.312;2023-12-20T07:28:55;106.90;;;54.13;;
20036;SDS011;10179;42.640;23.312;2023-12-20T07:31:21;113.47;;;57.30;;
20036;SDS011;10179;42.640;23.312;2023-12-20T07:33:49;120.85;;;60.92;;
20036;SDS011;10179;42.640;23.312;2023-12-20T07:36:14;117.65;;;58.35;;
20036;SDS011;10179;42.640;23.312;2023-12-20T07:38:39;107.82;;;55.17;;
20036;SDS011;10179;42.640;23.312;2023-12-20T07:41:08;104.05;;;50.05;;
20036;SDS011;10179;42.640;23.312;2023-12-20T07:43:34;101.45;;;51.83;;
20036;SDS011;10179;42.640;23.312;2023-12-20T07:46:03;98.70;;;50.53;;
20036;SDS011;10179;42.640;23.312;2023-12-20T07:48:30;129.18;;;60.25;;
20036;SDS011;10179;42.640;23.312;2023-12-20T07:50:55;115.40;;;58.28;;
20036;SDS011;10179;42.640;23.312;2023-12-20T07:53:21;120.35;;;57.85;;
20036;SDS011;10179;42.640;23.312;2023-12-20T07:55:46;109.75;;;54.72;;
20036;SDS011;10179;42.640;23.312;2023-12-20T07:58:11;108.25;;;56.95;;
20036;SDS011;10179;42.640;23.312;2023-12-20T08:00:37;116.57;;;56.75;;
20036;SDS011;10179;42.640;23.312;2023-12-20T08:03:03;109.88;;;57.63;;
20036;SDS011;10179;42.640;23.312;2023-12-20T08:05:28;114.93;;;54.88;;
20036;SDS011;10179;42.640;23.312;2023-12-20T08:07:54;114.82;;;56.80;;
20036;SDS011;10179;42.640;23.312;2023-12-20T08:10:19;113.32;;;56.75;;
20036;SDS011;10179;42.640;23.312;2023-12-20T08:12:44;115.30;;;60.42;;
20036;SDS011;10179;42.640;23.312;2023-12-20T08:15:10;124.13;;;65.10;;
20036;SDS011;10179;42.640;23.312;2023-12-20T08:17:35;123.82;;;60.35;;
20036;SDS011;10179;42.640;23.312;2023-12-20T08:20:00;117.45;;;59.78;;
20036;SDS011;10179;42.640;23.312;2023-12-20T08:22:26;119.13;;;57.03;;
20036;SDS011;10179;42.640;23.312;2023-12-20T08:24:51;128.20;;;64.10;;
20036;SDS011;10179;42.640;23.312;2023-12-20T08:27:17;113.50;;;56.22;;
20036;SDS011;10179;42.640;23.312;2023-12-20T08:29:43;129.23;;;65.05;;
20036;SDS011;10179;42.640;23.312;2023-12-20T08:32:10;92.75;;;46.65;;
20036;SDS011;10179;42.640;23.312;2023-12-20T08:34:35;121.72;;;63.15;;
20036;SDS011;10179;42.640;23.312;2023-12-20T08:37:01;126.28;;;58.88;;
20036;SDS011;10179;42.640;23.312;2023-12-20T08:39:26;118.03;;;60.30;;
20036;SDS011;10179;42.640;23.312;2023-12-20T08:41:51;106.97;;;55.42;;
20036;SDS011;10179;42.640;23.312;2023-12-20T08:44:17;116.15;;;61.45;;
20036;SDS011;10179;42.640;23.312;2023-12-20T08:46:42;117.32;;;60.90;;
20036;SDS011;10179;42.640;23.312;2023-12-20T08:49:08;121.60;;;63.25;;
20036;SDS011;10179;42.640;23.312;2023-12-20T08:51:34;118.47;;;62.33;;
20036;SDS011;10179;42.640;23.312;2023-12-20T08:54:00;118.97;;;59.88;;
20036;SDS011;10179;42.640;23.312;2023-12-20T08:56:25;119.65;;;62.30;;
20036;SDS011;10179;42.640;23.312;2023-12-20T08:58:50;134.30;;;64.43;;
20036;SDS011;10179;42.640;23.312;2023-12-20T09:01:16;124.45;;;62.25;;
20036;SDS011;10179;42.640;23.312;2023-12-20T09:03:41;119.95;;;63.65;;
20036;SDS011;10179;42.640;23.312;2023-12-20T09:06:07;127.78;;;61.40;;
20036;SDS011;10179;42.640;23.312;2023-12-20T09:08:32;117.93;;;60.97;;
20036;SDS011;10179;42.640;23.312;2023-12-20T09:10:58;108.85;;;56.25;;
20036;SDS011;10179;42.640;23.312;2023-12-20T09:13:23;102.25;;;52.25;;
20036;SDS011;10179;42.640;23.312;2023-12-20T09:15:56;105.30;;;55.55;;
20036;SDS011;10179;42.640;23.312;2023-12-20T09:18:22;110.30;;;56.22;;
20036;SDS011;10179;42.640;23.312;2023-12-20T09:20:48;121.38;;;61.00;;
20036;SDS011;10179;42.640;23.312;2023-12-20T09:23:13;106.50;;;56.95;;
20036;SDS011;10179;42.640;23.312;2023-12-20T09:25:39;109.53;;;58.28;;
20036;SDS011;10179;42.640;23.312;2023-12-20T09:28:04;106.28;;;54.90;;
20036;SDS011;10179;42.640;23.312;2023-12-20T09:30:30;101.65;;;53.42;;
20036;SDS011;10179;42.640;23.312;2023-12-20T09:32:56;101.85;;;52.08;;
20036;SDS011;10179;42.640;23.312;2023-12-20T09:35:22;93.00;;;48.28;;
20036;SDS011;10179;42.640;23.312;2023-12-20T09:37:48;97.43;;;51.20;;
20036;SDS011;10179;42.640;23.312;2023-12-20T09:40:13;94.57;;;49.85;;
20036;SDS011;10179;42.640;23.312;2023-12-20T09:42:58;107.05;;;53.72;;
20036;SDS011;10179;42.640;23.312;2023-12-20T09:45:35;101.63;;;52.30;;
20036;SDS011;10179;42.640;23.312;2023-12-20T09:48:02;97.97;;;51.38;;
20036;SDS011;10179;42.640;23.312;2023-12-20T09:50:30;106.72;;;52.33;;
20036;SDS011;10179;42.640;23.312;2023-12-20T09:52:57;104.88;;;50.95;;
20036;SDS011;10179;42.640;23.312;2023-12-20T09:55:24;94.22;;;47.63;;
20036;SDS011;10179;42.640;23.312;2023-12-20T09:57:50;89.25;;;43.72;;
20036;SDS011;10179;42.640;23.312;2023-12-20T10:00:16;85.72;;;45.38;;
20036;SDS011;10179;42.640;23.312;2023-12-20T10:02:45;71.93;;;35.90;;
20036;SDS011;10179;42.640;23.312;2023-12-20T10:07:41;84.00;;;39.88;;
20036;SDS011;10179;42.640;23.312;2023-12-20T10:10:06;87.07;;;41.10;;
20036;SDS011;10179;42.640;23.312;2023-12-20T10:12:33;81.45;;;41.60;;
20036;SDS011;10179;42.640;23.312;2023-12-20T10:14:59;72.85;;;37.67;;
20036;SDS011;10179;42.640;23.312;2023-12-20T10:17:24;75.00;;;41.88;;
20036;SDS011;10179;42.640;23.312;2023-12-20T10:19:54;73.85;;;37.03;;
20036;SDS011;10179;42.640;23.312;2023-12-20T10:22:19;85.90;;;41.60;;
20036;SDS011;10179;42.640;23.312;2023-12-20T10:24:45;86.10;;;42.10;;
20036;SDS011;10179;42.640;23.312;2023-12-20T10:27:11;85.70;;;44.83;;
20036;SDS011;10179;42.640;23.312;2023-12-20T10:29:37;92.13;;;42.72;;
20036;SDS011;10179;42.640;23.312;2023-12-20T10:32:22;92.65;;;43.88;;
20036;SDS011;10179;42.640;23.312;2023-12-20T10:34:49;87.57;;;45.25;;
20036;SDS011;10179;42.640;23.312;2023-12-20T10:37:15;95.82;;;43.78;;
20036;SDS011;10179;42.640;23.312;2023-12-20T10:39:41;89.05;;;44.95;;
20036;SDS011;10179;42.640;23.312;2023-12-20T10:42:08;101.03;;;48.88;;
20036;SDS011;10179;42.640;23.312;2023-12-20T10:44:36;100.50;;;48.00;;
20036;SDS011;10179;42.640;23.312;2023-12-20T10:47:01;89.65;;;49.20;;
20036;SDS011;10179;42.640;23.312;2023-12-20T10:49:29;97.50;;;50.15;;
20036;SDS011;10179;42.640;23.312;2023-12-20T10:51:55;89.70;;;43.08;;
20036;SDS011;10179;42.640;23.312;2023-12-20T10:54:23;96.93;;;49.22;;
20036;SDS011;10179;42.640;23.312;2023-12-20T10:56:48;97.03;;;48.85;;
20036;SDS011;10179;42.640;23.312;2023-12-20T10:59:17;111.18;;;55.83;;
20036;SDS011;10179;42.640;23.312;2023-12-20T11:01:45;103.35;;;52.55;;
20036;SDS011;10179;42.640;23.312;2023-12-20T11:04:14;113.95;;;54.78;;
20036;SDS011;10179;42.640;23.312;2023-12-20T11:06:47;95.30;;;48.40;;
20036;SDS011;10179;42.640;23.312;2023-12-20T11:09:22;102.73;;;52.13;;
20036;SDS011;10179;42.640;23.312;2023-12-20T11:14:38;100.70;;;50.13;;
20036;SDS011;10179;42.640;23.312;2023-12-20T11:17:05;98.40;;;50.88;;
20036;SDS011;10179;42.640;23.312;2023-12-20T11:22:21;104.43;;;49.28;;
20036;SDS011;10179;42.640;23.312;2023-12-20T11:24:47;95.53;;;48.78;;
20036;SDS011;10179;42.640;23.312;2023-12-20T11:27:14;96.50;;;46.05;;
20036;SDS011;10179;42.640;23.312;2023-12-20T11:29:40;99.05;;;48.85;;
20036;SDS011;10179;42.640;23.312;2023-12-20T11:32:39;99.93;;;47.10;;
20036;SDS011;10179;42.640;23.312;2023-12-20T11:35:16;91.32;;;45.80;;
20036;SDS011;10179;42.640;23.312;2023-12-20T11:37:43;89.88;;;41.75;;
20036;SDS011;10179;42.640;23.312;2023-12-20T11:40:12;89.22;;;43.22;;
20036;SDS011;10179;42.640;23.312;2023-12-20T11:42:43;91.15;;;45.13;;
20036;SDS011;10179;42.640;23.312;2023-12-20T11:45:14;93.78;;;46.05;;
20036;SDS011;10179;42.640;23.312;2023-12-20T11:47:43;95.57;;;46.45;;
20036;SDS011;10179;42.640;23.312;2023-12-20T11:50:16;95.88;;;43.90;;
20036;SDS011;10179;42.640;23.312;2023-12-20T11:52:42;98.68;;;49.65;;
20036;SDS011;10179;42.640;23.312;2023-12-20T11:55:07;98.43;;;46.10;;
20036;SDS011;10179;42.640;23.312;2023-12-20T11:57:33;103.20;;;48.47;;
20036;SDS011;10179;42.640;23.312;2023-12-20T11:59:59;102.70;;;51.55;;
20036;SDS011;10179;42.640;23.312;2023-12-20T12:02:24;100.30;;;50.63;;
20036;SDS011;10179;42.640;23.312;2023-12-20T12:04:49;105.85;;;53.05;;
20036;SDS011;10179;42.640;23.312;2023-12-20T12:07:18;101.55;;;51.30;;
20036;SDS011;10179;42.640;23.312;2023-12-20T12:09:43;98.90;;;44.03;;
20036;SDS011;10179;42.640;23.312;2023-12-20T12:12:09;104.00;;;49.50;;
20036;SDS011;10179;42.640;23.312;2023-12-20T12:14:37;97.60;;;45.80;;
20036;SDS011;10179;42.640;23.312;2023-12-20T12:17:03;88.75;;;49.88;;
20036;SDS011;10179;42.640;23.312;2023-12-20T12:19:29;92.95;;;47.08;;
20036;SDS011;10179;42.640;23.312;2023-12-20T12:22:06;101.57;;;45.90;;
20036;SDS011;10179;42.640;23.312;2023-12-20T12:24:42;93.88;;;46.50;;
20036;SDS011;10179;42.640;23.312;2023-12-20T12:27:09;94.47;;;47.03;;
20036;SDS011;10179;42.640;23.312;2023-12-20T12:29:35;91.97;;;46.80;;
20036;SDS011;10179;42.640;23.312;2023-12-20T12:32:01;89.32;;;45.33;;
20036;SDS011;10179;42.640;23.312;2023-12-20T12:34:31;94.05;;;46.95;;
20036;SDS011;10179;42.640;23.312;2023-12-20T12:36:56;89.60;;;44.78;;
20036;SDS011;10179;42.640;23.312;2023-12-20T12:39:23;87.53;;;43.25;;
20036;SDS011;10179;42.640;23.312;2023-12-20T12:41:52;83.18;;;43.90;;
20036;SDS011;10179;42.640;23.312;2023-12-20T12:44:18;89.25;;;42.38;;
20036;SDS011;10179;42.640;23.312;2023-12-20T12:46:47;87.40;;;43.00;;
20036;SDS011;10179;42.640;23.312;2023-12-20T12:49:15;82.63;;;42.38;;
20036;SDS011;10179;42.640;23.312;2023-12-20T12:51:41;80.22;;;43.85;;
20036;SDS011;10179;42.640;23.312;2023-12-20T12:54:06;88.40;;;44.58;;
20036;SDS011;10179;42.640;23.312;2023-12-20T12:56:31;95.70;;;46.53;;
20036;SDS011;10179;42.640;23.312;2023-12-20T12:58:57;91.45;;;45.83;;
20036;SDS011;10179;42.640;23.312;2023-12-20T13:01:23;83.00;;;42.50;;
20036;SDS011;10179;42.640;23.312;2023-12-20T13:03:48;79.32;;;40.85;;
20036;SDS011;10179;42.640;23.312;2023-12-20T13:06:13;90.25;;;43.40;;
20036;SDS011;10179;42.640;23.312;2023-12-20T13:08:39;77.78;;;40.95;;
20036;SDS011;10179;42.640;23.312;2023-12-20T13:11:04;87.15;;;42.67;;
20036;SDS011;10179;42.640;23.312;2023-12-20T13:13:30;87.28;;;44.30;;
20036;SDS011;10179;42.640;23.312;2023-12-20T13:15:56;86.85;;;43.83;;
20036;SDS011;10179;42.640;23.312;2023-12-20T13:18:22;85.95;;;42.72;;
20036;SDS011;10179;42.640;23.312;2023-12-20T13:20:48;84.05;;;40.35;;
20036;SDS011;10179;42.640;23.312;2023-12-20T13:23:14;88.05;;;43.45;;
20036;SDS011;10179;42.640;23.312;2023-12-20T13:25:40;88.85;;;43.88;;
20036;SDS011;10179;42.640;23.312;2023-12-20T13:28:06;89.90;;;41.10;;
20036;SDS011;10179;42.640;23.312;2023-12-20T13:30:33;98.97;;;43.88;;
20036;SDS011;10179;42.640;23.312;2023-12-20T13:32:59;89.20;;;43.92;;
20036;SDS011;10179;42.640;23.312;2023-12-20T13:35:24;103.65;;;43.35;;
20036;SDS011;10179;42.640;23.312;2023-12-20T13:37:50;87.03;;;44.03;;
20036;SDS011;10179;42.640;23.312;2023-12-20T13:40:15;87.97;;;43.28;;
20036;SDS011;10179;42.640;23.312;2023-12-20T13:42:40;85.40;;;41.92;;
20036;SDS011;10179;42.640;23.312;2023-12-20T13:45:06;82.03;;;41.63;;
20036;SDS011;10179;42.640;23.312;2023-12-20T13:47:32;84.68;;;42.15;;
20036;SDS011;10179;42.640;23.312;2023-12-20T13:49:58;89.30;;;42.38;;
20036;SDS011;10179;42.640;23.312;2023-12-20T13:52:23;83.85;;;42.53;;
20036;SDS011;10179;42.640;23.312;2023-12-20T13:54:49;86.07;;;43.20;;
20036;SDS011;10179;42.640;23.312;2023-12-20T13:57:14;90.95;;;43.33;;
20036;SDS011;10179;42.640;23.312;2023-12-20T13:59:40;85.20;;;42.05;;
20036;SDS011;10179;42.640;23.312;2023-12-20T14:02:05;81.20;;;42.42;;
20036;SDS011;10179;42.640;23.312;2023-12-20T14:04:30;82.85;;;41.92;;
20036;SDS011;10179;42.640;23.312;2023-12-20T14:06:56;96.35;;;44.42;;
20036;SDS011;10179;42.640;23.312;2023-12-20T14:09:22;88.75;;;44.58;;